Terminal Aerodrome Forecast
Issued by NWS Charleston, WV

Current Version | Previous Version | Text Only | Print | Product List | Glossary Off
Versions: 1 2 3 4 5 6 7 8 9 10 11 12 13 14 15 16 17 18 19 20 21 22

000
FTUS41 KRLX 020300 AAA
TAFPKB
TAF AMD
KPKB 020319Z 0203/0224 27004KT 4SM -RA BR BKN008 OVC022
     FM020700 27004KT 2SM BR OVC008
     FM021400 31005KT P6SM BKN025
     FM021700 31005KT P6SM SCT025=

USA.gov is the U.S. government's official web portal to all federal, state and local government web resources and services.